Welcome to our Virtual Airline
Sign-in:

Flight DTM0235

  • Submitted By: Thomas Menzel
  • Departure Airport: (MMC8)
  • Arrival Airport: Point Baker SPB (KPB)
  • Aircraft: SOLOY T206H (NT206MM)
  • Flight Time: 00.16.14
  • Date Submitted: 21/04/29
  • Route: 19P
  • Status: Accepted
Flight Details
Gross Revenue:
(4 load / $ 0.00 per unit
$ 0.00
Fuel Cost:
(12.247 fuel used @ 0 / unit)
$ 0.00

Additional Log Information:

View Log

[15:38] ----- Flight Opened -----
[15:38] Cigar Box - 1.1.4.0
[15:38] FS: Prepar3D V4
[15:38] FSUIPC: v6
[15:38] Flight Number: DTM0235
[15:38] FS Aircraft: Soloy MK2 RTMM Float
[15:38] FS Model: C206
[15:38] FS Type: Cessna
[15:38] Departure: MMC8
[15:38] Arrival: KPB
[15:38] Flight Level: 3000
[15:38] Flight Type: H
[15:38] Passengers: 4
[15:38] FOB: 513 lbs
[15:38] Gate: n/a
[15:38] NOTE: Parking Brake Ignored
[15:38] Crash Detection: Disabled
[15:38] Engines: 1 Turboprop
[15:38] NOTE: Boarding has started
[15:38] Engine 1: Started
[15:38] Light Data: Navigation ON
[15:38] Light Data: Beacon ON
[15:38] Light Data: Landing lights ON
[15:38] Light Data: Strobe lights ON
[15:38] Light Data: Recognition lights ON
[15:38] Main Door Closed
[15:38] COM1: 122.90
[15:38] COM2: 127.80
[15:38] Transponder: 7000
[15:38] NAV1: 110.10
[15:38] NAV2: 110.60
[15:38] ADF1: 284.0
[15:38] ADF2: 240.0
[15:38] Navigation Mode: GPS
[15:38] Navigation Mode: GPS
[15:38] Flaps: Position 1
[15:38] NOTE: Taxi started
[15:40] NOTE: ----- TAKE OFF -----
[15:40] GS: 64 knots
[15:40] TAS: 62 knots
[15:40] IAS: 63 knots
[15:40] VS: 8 fpm
[15:40] FOB: 511 lbs
[15:40] Heading: 234°
[15:40] Pitch: 3°
[15:40] Bank: 0°
[15:40] Aircraft Weight: 3790.61 lbs
[15:40] Nearest Airport: TF19
[15:40] Distance: 0.45 miles
[15:40] Runway: ???
[15:40] Ground Surface: Water
[15:40] Ground Condition: Wet
[15:40] NOTE: Weather Report
[15:40] Wind Heading: 55°
[15:40] Wind Speed: 3 knots
[15:40] OAT: 7° C
[15:40] TAT: 8° C
[15:40] Precipitation: Very Light Rain
[15:40] Dew Point: 7° C
[15:40] Visibility: 6 miles
[15:40] METAR:
[15:40] NOTE: Climb started
[15:40] Flaps: Position 0
[15:40] GS: 93 knots
[15:40] TAS: 91 knots
[15:40] IAS: 92 knots
[15:40] VS: 406 fpm
[15:40] Light Data: Landing lights OFF
[15:40] AGL: 150 ft
[15:40] AMSL: 150 ft
[15:40] View Mode: Virtual Cockpit
[15:41] Autopilot: Engaged
[15:41] AGL: 515 ft
[15:41] AMSL: 515 ft
[15:41] Autopilot: Disengaged
[15:41] AGL: 869 ft
[15:41] AMSL: 869 ft
[15:41] Flaps: Position 1
[15:41] GS: 93 knots
[15:41] TAS: 95 knots
[15:41] IAS: 94 knots
[15:41] VS: -635 fpm
[15:42] Light Data: Landing lights ON
[15:42] AGL: 236 ft
[15:42] AMSL: 236 ft
[15:42] Flaps: Position 2
[15:42] GS: 68 knots
[15:42] TAS: 69 knots
[15:42] IAS: 70 knots
[15:42] VS: -223 fpm
[15:42] NOTE: ----- LANDED -----
[15:42] Landing Rate: -234.53 fpm
[15:42] GS: 68 knots
[15:42] TAS: 68 knots
[15:42] IAS: 69 knots
[15:42] VS: -233 fpm
[15:42] FOB: 503 lbs
[15:42] Heading: 136°
[15:42] Pitch: 4°
[15:42] Bank: -3°
[15:42] Aircraft Weight: 3782.68 lbs
[15:42] Nearest Airport: 19P
[15:42] Distance: 0.09 miles
[15:42] Runway: SW-NE - 19P
[15:42] Ground Surface: Water
[15:42] Ground Condition: Wet
[15:42] NOTE: Weather Report
[15:42] Wind Heading: 56°
[15:42] Wind Speed: 3 knots
[15:42] OAT: 7° C
[15:42] TAT: 8° C
[15:42] Precipitation: Very Light Rain
[15:42] Dew Point: 7° C
[15:42] Visibility: 6 miles
[15:42] METAR: KPBG 291253Z AUTO 10SM OVC020 11/08 A2978 RMK AO2 SLP084 T01110083 KPBI 291253Z 12016KT 10SM SCT029 SCT055 BKN070 28/22 A3005 RMK AO2 SLP176 T02830217 KPBH 291315Z AUTO 00000KT 10SM SCT075 05/05 A2987 RMK AO2 T00520045 KPBF 291253Z AUTO 26005KT 10SM -RA SCT043 BKN065 OVC095 21/19 A2996 RMK AO2 SLP142 P0004 T02110194 $
[15:42] View Mode: Virtual Cockpit
[15:43] NOTE: Taxi started
[15:46] Landing Gear: Retracted
[15:46] GS: 0 knots
[15:46] TAS: 1 knots
[15:46] IAS: 1 knots
[15:46] VS: -216 fpm
[15:46] AGL: 3 ft
[15:46] AMSL: 3 ft
[15:46] Slew Mode: Activated
[15:46] Slew Mode: Deactivated
[15:46] Flaps: Position 1
[15:47] Autopilot: Engaged
[15:47] AGL: 200 ft
[15:47] AMSL: 200 ft
[15:47] View Mode: Spot Plane
[15:48] Autopilot: Disengaged
[15:48] AGL: 508 ft
[15:48] AMSL: 508 ft
[15:51] Flaps: Position 2
[15:51] GS: 81 knots
[15:51] TAS: 83 knots
[15:51] IAS: 84 knots
[15:51] VS: -93 fpm
[15:51] NOTE: ----- LANDED -----
[15:51] Landing Rate: -140.72 fpm
[15:51] GS: 68 knots
[15:51] TAS: 69 knots
[15:51] IAS: 69 knots
[15:51] VS: -139 fpm
[15:51] FOB: 488 lbs
[15:51] Heading: 151°
[15:51] Pitch: 3°
[15:51] Bank: -3°
[15:51] Aircraft Weight: 3768.26 lbs
[15:51] Nearest Airport: KPB
[15:51] Distance: 0.83 miles
[15:51] Runway: S-N - KPB
[15:51] Ground Surface: Water
[15:51] Ground Condition: Wet
[15:51] NOTE: Weather Report
[15:51] Wind Heading: 63°
[15:51] Wind Speed: 3 knots
[15:51] OAT: 7° C
[15:51] TAT: 8° C
[15:51] Precipitation: Very Light Rain
[15:51] Dew Point: 7° C
[15:51] Visibility: 6 miles
[15:51] METAR: KPBG 291253Z AUTO 10SM OVC020 11/08 A2978 RMK AO2 SLP084 T01110083 KPBI 291253Z 12016KT 10SM SCT029 SCT055 BKN070 28/22 A3005 RMK AO2 SLP176 T02830217 KPBH 291315Z AUTO 00000KT 10SM SCT075 05/05 A2987 RMK AO2 T00520045 KPBF 291253Z AUTO 26005KT 10SM -RA SCT043 BKN065 OVC095 21/19 A2996 RMK AO2 SLP142 P0004 T02110194 $
[15:51] View Mode: Virtual Cockpit
[15:52] Flaps: Position 0
[15:53] Reverse Thrust Started: 11 knots
[15:53] Reverse Thrust Stopped: 5 knots
[15:53] Reverse Thrust Started: 9 knots
[15:53] Reverse Thrust Stopped: 0 knots
[15:54] Engine 1: Stopped
[15:55] Light Data: Navigation OFF
[15:55] Light Data: Strobe lights OFF
[15:56] Gate: n/a
[15:56] NOTE: Flight Completed
[15:56] FS Aircraft: Soloy MK2 RTMM Float
[15:56] FS Model: C206
[15:56] FS Type: Cessna
[15:56] FOB: 486 lbs
[15:56] Fuel Used: 27 lbs
[15:56] Flight Time: 00:16:14
[15:56] Flight Time (Dawn): 00:00:19
[15:56] Flight Time (Day): 00:15:55
[15:56] Flight Time (Dusk): 00:00:00
[15:56] Flight Time (Night): 00:00:00
[15:56] Total Landings: 2
[15:56] MaxSim Rate: 1x
[15:56] Cigar Box - 1.1.4.0
[15:56] ----- Flight Closed -----

Route Map